createdAt,value
2018-10-19T00:01:18.653Z,18.53
2018-10-19T00:03:47.149Z,17.60
2018-10-19T00:06:15.697Z,19.33
2018-10-19T00:08:44.319Z,20.40
2018-10-19T00:11:13.009Z,18.97
2018-10-19T00:13:41.552Z,20.67
2018-10-19T00:16:10.026Z,19.93
2018-10-19T00:18:39.582Z,18.40
2018-10-19T00:21:08.181Z,18.87
2018-10-19T00:23:36.990Z,19.30
2018-10-19T00:26:06.013Z,19.27
2018-10-19T00:28:34.691Z,18.37
2018-10-19T00:31:03.243Z,17.93
2018-10-19T00:33:31.941Z,17.93
2018-10-19T00:36:00.501Z,17.67
2018-10-19T00:38:29.181Z,18.90
2018-10-19T00:40:57.673Z,16.30
2018-10-19T00:43:26.611Z,17.63
2018-10-19T00:45:55.226Z,17.43
2018-10-19T00:48:23.734Z,16.63
2018-10-19T00:50:53.029Z,16.93
2018-10-19T00:53:21.739Z,17.10
2018-10-19T00:55:50.276Z,16.93
2018-10-19T00:58:19.337Z,17.47
2018-10-19T01:00:47.977Z,17.07
2018-10-19T01:03:16.560Z,17.37
2018-10-19T01:05:45.024Z,16.73
2018-10-19T01:08:13.907Z,17.67
2018-10-19T01:10:42.457Z,17.60
2018-10-19T01:13:11.437Z,17.50
2018-10-19T01:15:40.074Z,18.20
2018-10-19T01:18:16.074Z,17.30
2018-10-19T01:20:44.785Z,16.33
2018-10-19T01:23:13.335Z,17.40
2018-10-19T01:25:42.821Z,17.00
2018-10-19T01:28:15.527Z,16.93
2018-10-19T01:30:44.146Z,16.33
2018-10-19T01:33:13.374Z,17.40
2018-10-19T01:35:42.034Z,16.40
2018-10-19T01:38:10.513Z,32.73
2018-10-19T01:40:39.064Z,24.10
2018-10-19T01:43:07.560Z,27.97
2018-10-19T01:45:36.253Z,17.03
2018-10-19T01:48:04.778Z,26.60
2018-10-19T01:50:33.941Z,16.23
2018-10-19T01:53:02.570Z,26.73
2018-10-19T01:55:30.980Z,17.37
2018-10-19T01:57:59.605Z,15.80
2018-10-19T02:00:28.669Z,16.37
2018-10-19T02:02:57.243Z,15.00
2018-10-19T02:05:25.692Z,14.17
2018-10-19T02:07:54.290Z,15.00
2018-10-19T02:10:22.866Z,14.50
2018-10-19T02:12:51.472Z,14.40
2018-10-19T02:15:20.651Z,17.07
2018-10-19T02:17:49.152Z,13.53
2018-10-19T02:20:17.807Z,13.93
2018-10-19T02:22:46.468Z,14.60
2018-10-19T02:25:15.625Z,14.13
2018-10-19T02:27:44.420Z,14.90
2018-10-19T02:30:12.911Z,14.50
2018-10-19T02:32:41.509Z,14.30
2018-10-19T02:35:10.196Z,16.00
2018-10-19T02:37:38.680Z,13.80
2018-10-19T02:40:09.092Z,15.13
2018-10-19T02:42:38.899Z,14.77
2018-10-19T02:45:08.465Z,15.80
2018-10-19T02:47:37.146Z,15.13
2018-10-19T02:50:06.698Z,14.17
2018-10-19T02:52:35.256Z,15.50
2018-10-19T02:55:04.280Z,16.23
2018-10-19T02:57:33.516Z,15.83
2018-10-19T03:00:02.060Z,16.33
2018-10-19T03:02:31.000Z,17.00
2018-10-19T03:04:59.528Z,16.73
2018-10-19T03:07:28.049Z,17.10
2018-10-19T03:09:56.701Z,17.13
2018-10-19T03:12:25.365Z,18.50
2018-10-19T03:14:54.629Z,18.53
2018-10-19T03:17:23.316Z,18.27
2018-10-19T03:19:52.033Z,19.77
2018-10-19T03:22:20.604Z,17.67
2018-10-19T03:24:49.489Z,17.37
2018-10-19T03:27:18.559Z,17.03
2018-10-19T03:29:47.050Z,18.07
2018-10-19T03:32:15.795Z,17.70
2018-10-19T03:34:44.505Z,18.50
2018-10-19T03:37:14.162Z,19.37
2018-10-19T03:39:42.600Z,18.83
2018-10-19T03:42:11.227Z,18.50
2018-10-19T03:44:39.685Z,18.80
2018-10-19T03:47:08.351Z,18.50
2018-10-19T03:49:36.862Z,17.40
2018-10-19T03:52:05.722Z,17.73
2018-10-19T03:54:34.233Z,18.07
2018-10-19T03:57:02.897Z,17.37
2018-10-19T03:59:32.017Z,19.67
2018-10-19T04:02:00.985Z,17.60
2018-10-19T04:04:29.487Z,18.27
2018-10-19T04:06:58.775Z,20.67
2018-10-19T04:09:27.497Z,19.20
2018-10-19T04:11:55.982Z,19.23
2018-10-19T04:14:24.735Z,19.50
2018-10-19T04:16:53.226Z,19.67
2018-10-19T04:19:21.773Z,21.70
2018-10-19T04:21:50.264Z,22.63
2018-10-19T04:24:18.977Z,21.53
2018-10-19T04:26:47.466Z,20.03
2018-10-19T04:29:16.269Z,20.17
2018-10-19T04:31:45.547Z,21.50
2018-10-19T04:34:14.191Z,20.57
2018-10-19T04:36:42.724Z,21.30
2018-10-19T04:39:11.493Z,20.73
2018-10-19T04:41:39.957Z,20.93
2018-10-19T04:44:09.202Z,21.27
2018-10-19T04:46:38.431Z,21.07
2018-10-19T04:49:06.946Z,21.10
2018-10-19T04:51:36.348Z,19.90
2018-10-19T04:54:05.246Z,18.80
2018-10-19T04:56:33.930Z,19.50
2018-10-19T04:59:02.602Z,19.60
2018-10-19T05:01:31.055Z,19.17
2018-10-19T05:03:59.830Z,18.43
2018-10-19T05:06:28.674Z,19.33
2018-10-19T05:08:58.846Z,19.40
2018-10-19T05:11:27.474Z,18.43
2018-10-19T05:13:56.823Z,18.57
2018-10-19T05:16:25.291Z,18.13
2018-10-19T05:18:53.950Z,19.87
2018-10-19T05:21:22.515Z,19.40
2018-10-19T05:23:51.011Z,18.53
2018-10-19T05:26:19.831Z,17.67
2018-10-19T05:28:48.428Z,16.90
2018-10-19T05:31:17.021Z,16.00
2018-10-19T05:33:45.626Z,17.33
2018-10-19T05:36:14.382Z,18.43
2018-10-19T05:38:43.021Z,17.83
2018-10-19T05:41:11.812Z,16.00
2018-10-19T05:43:41.486Z,17.40
2018-10-19T05:46:11.604Z,17.80
2018-10-19T05:48:40.360Z,18.30
2018-10-19T05:51:09.656Z,18.10
2018-10-19T05:53:38.442Z,18.40
2018-10-19T05:56:07.841Z,17.43
2018-10-19T05:58:37.355Z,16.27
2018-10-19T06:01:06.248Z,17.97
2018-10-19T06:03:35.070Z,18.70
2018-10-19T06:06:03.746Z,17.93
2018-10-19T06:08:32.999Z,18.27
2018-10-19T06:11:01.818Z,17.33
2018-10-19T06:13:30.711Z,18.23
2018-10-19T06:15:59.344Z,17.13
2018-10-19T06:18:28.146Z,17.07
2018-10-19T06:20:59.956Z,17.00
2018-10-19T06:23:28.634Z,19.57
2018-10-19T06:25:57.827Z,17.90
2018-10-19T06:28:26.425Z,16.60
2018-10-19T06:30:54.903Z,17.40
2018-10-19T06:33:23.425Z,17.23
2018-10-19T06:35:52.064Z,18.43
2018-10-19T06:38:20.691Z,18.23
2018-10-19T06:40:49.221Z,19.13
2018-10-19T06:43:17.822Z,19.17
2018-10-19T06:45:47.650Z,18.37
2018-10-19T06:48:16.446Z,19.47
2018-10-19T06:50:45.879Z,19.03
2018-10-19T06:53:14.560Z,18.80
2018-10-19T06:55:43.221Z,17.50
2018-10-19T06:58:12.526Z,18.27
2018-10-19T07:00:41.148Z,18.80
2018-10-19T07:03:10.088Z,19.57
2018-10-19T07:05:38.971Z,18.17
2018-10-19T07:08:07.669Z,18.83
2018-10-19T07:10:36.310Z,19.17
2018-10-19T07:13:04.832Z,21.07
2018-10-19T07:15:33.455Z,20.43
2018-10-19T07:18:02.846Z,20.33
2018-10-19T07:20:31.656Z,19.80
2018-10-19T07:23:00.396Z,20.73
2018-10-19T07:25:29.026Z,18.43
2018-10-19T07:27:57.671Z,19.73
2018-10-19T07:30:26.186Z,19.27
2018-10-19T07:32:54.982Z,20.77
2018-10-19T07:35:23.715Z,19.80
2018-10-19T07:37:52.278Z,19.70
2018-10-19T07:40:20.973Z,21.07
2018-10-19T07:42:49.759Z,21.20
2018-10-19T07:45:18.578Z,22.00
2018-10-19T07:47:47.960Z,22.07
2018-10-19T07:50:16.528Z,21.13
2018-10-19T07:52:45.348Z,20.63
2018-10-19T07:55:14.044Z,21.97
2018-10-19T07:57:42.573Z,23.97
2018-10-19T08:00:11.785Z,23.87
2018-10-19T08:02:40.272Z,22.37
2018-10-19T08:05:09.445Z,21.57
2018-10-19T08:07:44.531Z,23.87
2018-10-19T08:10:13.219Z,22.97
2018-10-19T08:12:41.826Z,23.50
2018-10-19T08:15:10.814Z,23.83
2018-10-19T08:17:39.517Z,22.43
2018-10-19T08:20:08.543Z,23.67
2018-10-19T08:22:37.383Z,24.27
2018-10-19T08:25:07.176Z,24.10
2018-10-19T08:27:36.417Z,24.23
2018-10-19T08:30:05.111Z,23.10
2018-10-19T08:32:33.767Z,23.77
2018-10-19T08:35:02.479Z,23.17
2018-10-19T08:37:32.957Z,24.03
2018-10-19T08:40:01.583Z,23.83
2018-10-19T08:42:30.108Z,24.40
2018-10-19T08:44:59.521Z,24.33
2018-10-19T08:47:28.251Z,23.67
2018-10-19T08:49:56.865Z,24.70
2018-10-19T08:52:26.242Z,25.37
2018-10-19T08:54:54.961Z,25.63
2018-10-19T08:57:23.922Z,23.40
2018-10-19T08:59:53.306Z,23.60
2018-10-19T09:02:22.220Z,24.97
2018-10-19T09:04:50.832Z,24.60
2018-10-19T09:07:19.780Z,24.10
2018-10-19T09:09:48.541Z,23.63
2018-10-19T09:12:17.136Z,24.10
2018-10-19T09:14:53.668Z,23.83
2018-10-19T09:17:22.759Z,22.50
2018-10-19T09:19:52.321Z,22.73
2018-10-19T09:22:21.761Z,23.17
2018-10-19T09:24:51.570Z,24.57
2018-10-19T09:27:21.536Z,24.07
2018-10-19T09:29:50.148Z,23.73
2018-10-19T09:32:18.851Z,24.63
2018-10-19T09:34:47.809Z,23.60
2018-10-19T09:37:16.392Z,21.60
2018-10-19T09:39:45.781Z,22.37
2018-10-19T09:42:14.454Z,21.33
2018-10-19T09:44:43.153Z,21.33
2018-10-19T09:47:11.732Z,21.60
2018-10-19T09:49:40.363Z,22.80
2018-10-19T09:52:09.613Z,21.07
2018-10-19T09:54:38.408Z,22.17
2018-10-19T09:57:06.964Z,21.03
2018-10-19T09:59:35.500Z,21.27
2018-10-19T10:02:04.194Z,21.60
2018-10-19T10:04:32.894Z,20.57
2018-10-19T10:07:01.670Z,21.30
2018-10-19T10:09:30.601Z,22.00
2018-10-19T10:11:59.148Z,21.80
2018-10-19T10:14:27.819Z,21.27
2018-10-19T10:16:56.519Z,20.25
2018-10-19T10:19:25.146Z,20.80
2018-10-19T10:21:54.277Z,19.83
2018-10-19T10:24:22.917Z,20.20
2018-10-19T10:26:51.616Z,21.30
2018-10-19T10:29:20.921Z,21.13
2018-10-19T10:31:49.480Z,19.20
2018-10-19T10:34:18.336Z,19.82
2018-10-19T10:36:46.787Z,19.63
2018-10-19T10:39:16.245Z,17.85
2018-10-19T10:41:44.954Z,18.30
2018-10-19T10:44:13.501Z,18.53
2018-10-19T10:46:42.340Z,20.95
2018-10-19T10:49:10.926Z,20.97
2018-10-19T10:51:39.697Z,20.82
2018-10-19T10:54:08.584Z,21.10
2018-10-19T10:56:37.302Z,21.87
2018-10-19T10:59:06.219Z,21.97
2018-10-19T11:01:35.013Z,19.57
2018-10-19T11:04:03.949Z,19.62
2018-10-19T11:06:32.553Z,21.90
2018-10-19T11:09:01.366Z,21.65
2018-10-19T11:11:35.943Z,22.47
2018-10-19T11:14:05.005Z,21.40
2018-10-19T11:16:33.617Z,22.58
2018-10-19T11:19:03.133Z,22.02
2018-10-19T11:21:32.737Z,21.75
2018-10-19T11:24:01.557Z,22.58
2018-10-19T11:26:30.421Z,22.10
2018-10-19T11:28:59.961Z,21.25
2018-10-19T11:31:29.127Z,21.60
2018-10-19T11:33:57.887Z,21.15
2018-10-19T11:36:26.692Z,20.45
2018-10-19T11:38:55.201Z,20.62
2018-10-19T11:41:23.904Z,21.55
2018-10-19T11:43:52.493Z,19.80
2018-10-19T11:46:21.228Z,19.00
2018-10-19T11:48:50.359Z,20.10
2018-10-19T11:51:19.037Z,18.82
2018-10-19T11:53:48.006Z,19.70
2018-10-19T11:56:16.645Z,20.32
2018-10-19T11:58:45.289Z,19.87
2018-10-19T12:01:14.033Z,18.92
2018-10-19T12:03:42.767Z,19.75
2018-10-19T12:06:11.275Z,19.50
2018-10-19T12:08:40.307Z,21.23
2018-10-19T12:11:09.084Z,19.32
2018-10-19T12:13:37.868Z,20.80
2018-10-19T12:16:07.320Z,20.15
2018-10-19T12:18:36.015Z,18.95
2018-10-19T12:21:05.089Z,18.55
2018-10-19T12:23:33.879Z,20.35
2018-10-19T12:26:02.545Z,18.80
2018-10-19T12:28:31.089Z,17.62
2018-10-19T12:30:59.935Z,18.35
2018-10-19T12:33:28.561Z,19.45
2018-10-19T12:35:57.494Z,18.50
2018-10-19T12:38:26.861Z,17.27
2018-10-19T12:40:55.718Z,16.48
2018-10-19T12:43:24.198Z,17.20
2018-10-19T12:46:34.877Z,16.27
2018-10-19T12:49:03.424Z,17.12
2018-10-19T12:51:32.212Z,16.20
2018-10-19T12:54:00.933Z,16.55
2018-10-19T12:56:29.802Z,15.08
2018-10-19T12:58:58.560Z,16.25
2018-10-19T13:01:28.395Z,15.15
2018-10-19T13:03:57.791Z,14.75
2018-10-19T13:06:26.463Z,15.75
2018-10-19T13:08:55.462Z,14.43
2018-10-19T13:11:24.367Z,15.98
2018-10-19T13:13:54.192Z,15.32
2018-10-19T13:16:23.156Z,14.20
2018-10-19T13:18:52.093Z,14.18
2018-10-19T13:21:20.988Z,15.93
2018-10-19T13:23:50.378Z,14.80
2018-10-19T13:26:19.096Z,14.55
2018-10-19T13:28:47.989Z,16.23
2018-10-19T13:31:17.039Z,14.68
2018-10-19T13:33:45.870Z,14.20
2018-10-19T13:36:14.685Z,16.65
2018-10-19T13:38:43.216Z,18.80
2018-10-19T13:41:12.103Z,18.52
2018-10-19T13:43:41.709Z,18.45
2018-10-19T13:46:10.484Z,18.40
2018-10-19T13:48:39.643Z,16.27
2018-10-19T13:51:08.343Z,17.75
2018-10-19T13:53:37.059Z,17.30
2018-10-19T13:56:05.640Z,19.23
2018-10-19T13:58:34.346Z,20.43
2018-10-19T14:01:02.895Z,18.82
2018-10-19T14:03:31.728Z,17.57
2018-10-19T14:06:00.968Z,20.48
2018-10-19T14:08:30.211Z,20.97
2018-10-19T14:10:58.849Z,19.92
2018-10-19T14:13:27.846Z,21.40
2018-10-19T14:15:56.524Z,21.27
2018-10-19T14:18:25.537Z,22.07
2018-10-19T14:20:54.381Z,22.20
2018-10-19T14:23:23.690Z,21.70
2018-10-19T14:25:52.885Z,21.02
2018-10-19T14:28:21.702Z,20.52
2018-10-19T14:30:51.096Z,20.50
2018-10-19T14:33:19.924Z,20.15
2018-10-19T14:35:48.553Z,18.20
2018-10-19T14:38:17.886Z,19.00
2018-10-19T14:40:46.889Z,17.10
2018-10-19T14:43:16.419Z,18.73
2018-10-19T14:45:45.908Z,18.65
2018-10-19T14:48:17.929Z,19.82
2018-10-19T14:50:46.692Z,20.73
2018-10-19T14:53:15.755Z,22.50
2018-10-19T14:55:44.645Z,21.63
2018-10-19T14:58:14.204Z,20.53
2018-10-19T15:00:48.251Z,21.42
2018-10-19T15:03:17.014Z,19.77
2018-10-19T15:05:45.834Z,21.67
2018-10-19T15:08:15.089Z,23.77
2018-10-19T15:10:44.287Z,21.40
2018-10-19T15:13:12.589Z,21.80
2018-10-19T15:15:41.281Z,23.00
2018-10-19T15:18:10.675Z,23.77
2018-10-19T15:20:39.573Z,21.70
2018-10-19T15:23:08.361Z,22.43
2018-10-19T15:25:37.056Z,22.63
2018-10-19T15:28:05.595Z,21.87
2018-10-19T15:30:34.318Z,22.80
2018-10-19T15:33:02.928Z,24.70
2018-10-19T15:35:31.432Z,23.30
2018-10-19T15:38:00.139Z,21.27
2018-10-19T15:40:28.956Z,22.87
2018-10-19T15:42:57.777Z,22.37
2018-10-19T15:45:26.678Z,23.10
2018-10-19T15:47:55.364Z,23.00
2018-10-19T15:50:24.395Z,23.67
2018-10-19T15:52:53.630Z,22.30
2018-10-19T15:55:22.149Z,23.70
2018-10-19T15:57:50.889Z,24.60
2018-10-19T16:00:19.887Z,24.30
2018-10-19T16:02:48.955Z,24.63
2018-10-19T16:05:17.689Z,25.07
2018-10-19T16:07:46.396Z,25.77
2018-10-19T16:10:14.997Z,23.90
2018-10-19T16:12:43.790Z,24.37
2018-10-19T16:15:12.511Z,27.10
2018-10-19T16:17:41.163Z,26.00
2018-10-19T16:20:10.933Z,24.90
2018-10-19T16:22:39.710Z,25.60
2018-10-19T16:25:08.804Z,25.57
2018-10-19T16:27:39.131Z,25.17
2018-10-19T16:30:09.142Z,26.10
2018-10-19T16:32:39.322Z,25.50
2018-10-19T16:35:08.389Z,25.67
2018-10-19T16:37:37.756Z,25.50
2018-10-19T16:40:07.571Z,25.10
2018-10-19T16:42:36.373Z,23.87
2018-10-19T16:45:05.943Z,24.77
2018-10-19T16:47:35.715Z,25.27
2018-10-19T16:50:04.563Z,25.60
2018-10-19T16:52:33.288Z,26.97
2018-10-19T16:55:01.796Z,25.70
2018-10-19T16:57:30.597Z,24.83
2018-10-19T16:59:59.304Z,24.97
2018-10-19T17:02:28.021Z,28.10
2018-10-19T17:04:57.076Z,23.80
2018-10-19T17:07:25.512Z,23.33
2018-10-19T17:09:54.147Z,25.23
2018-10-19T17:12:23.205Z,24.63
2018-10-19T17:14:51.690Z,24.97
2018-10-19T17:17:20.402Z,23.80
2018-10-19T17:19:49.145Z,23.27
2018-10-19T17:42:25.922Z,21.73
2018-10-19T17:44:55.165Z,21.83
2018-10-19T17:47:24.074Z,21.50
2018-10-19T17:49:53.313Z,21.80
2018-10-19T17:52:21.818Z,22.33
2018-10-19T17:54:50.621Z,20.10
2018-10-19T17:57:19.263Z,22.13
2018-10-19T17:59:48.036Z,20.43
2018-10-19T18:02:16.929Z,20.47
2018-10-19T18:04:46.273Z,20.57
2018-10-19T18:07:15.096Z,20.50
2018-10-19T18:09:48.073Z,21.07
2018-10-19T18:12:16.666Z,19.70
2018-10-19T18:14:48.423Z,20.80
2018-10-19T18:17:17.174Z,20.43
2018-10-19T18:19:45.905Z,18.00
2018-10-19T18:22:15.047Z,19.07
2018-10-19T18:24:43.284Z,18.50
2018-10-19T18:27:11.980Z,20.10
2018-10-19T18:29:40.477Z,19.33
2018-10-19T18:32:09.423Z,20.70
2018-10-19T18:34:38.068Z,18.90
2018-10-19T18:37:07.323Z,20.27
2018-10-19T18:39:36.019Z,19.23
2018-10-19T18:42:04.671Z,18.57
2018-10-19T18:44:33.060Z,18.77
2018-10-19T18:47:01.848Z,19.50
2018-10-19T18:49:30.366Z,19.23
2018-10-19T18:51:59.012Z,17.93
2018-10-19T18:54:27.689Z,19.27
2018-10-19T18:56:56.302Z,17.77
2018-10-19T18:59:24.841Z,18.97
2018-10-19T19:01:53.591Z,17.93
2018-10-19T19:04:22.810Z,16.67
2018-10-19T19:06:52.017Z,17.67
2018-10-19T19:09:20.683Z,17.63
2018-10-19T19:11:49.650Z,17.10
2018-10-19T19:14:18.284Z,18.13
2018-10-19T19:16:46.888Z,19.00
2018-10-19T19:19:15.461Z,17.50
2018-10-19T19:21:44.720Z,19.73
2018-10-19T19:25:22.369Z,17.63
2018-10-19T19:27:51.073Z,17.47
2018-10-19T19:30:19.781Z,18.80
2018-10-19T19:32:54.154Z,17.13
2018-10-19T19:35:22.952Z,17.20
2018-10-19T19:37:51.902Z,16.60
2018-10-19T19:40:20.625Z,18.30
2018-10-19T19:42:51.412Z,17.07
2018-10-19T19:45:20.094Z,17.63
2018-10-19T19:47:53.841Z,16.40
2018-10-19T19:50:23.227Z,17.33
2018-10-19T19:52:51.982Z,16.77
2018-10-19T19:55:20.594Z,17.17
2018-10-19T19:57:49.270Z,17.43
2018-10-19T20:00:17.933Z,16.60
2018-10-19T20:02:46.432Z,18.23
2018-10-19T20:05:15.505Z,17.93
2018-10-19T20:07:44.280Z,19.30
2018-10-19T20:10:12.772Z,18.27
2018-10-19T20:12:41.351Z,20.23
2018-10-19T20:15:10.648Z,27.97
2018-10-19T20:17:39.455Z,21.60
2018-10-19T20:20:09.853Z,21.47
2018-10-19T20:22:39.001Z,21.63
2018-10-19T20:25:09.729Z,18.87
2018-10-19T20:27:39.142Z,17.90
2018-10-19T20:30:10.161Z,18.00
2018-10-19T20:32:39.300Z,17.57
2018-10-19T20:35:07.844Z,16.60
2018-10-19T20:37:36.566Z,17.33
2018-10-19T20:40:05.417Z,18.57
2018-10-19T20:42:34.257Z,20.47
2018-10-19T20:45:02.879Z,18.00
2018-10-19T20:47:31.516Z,16.67
2018-10-19T20:50:00.249Z,16.73
2018-10-19T20:52:29.686Z,17.47
2018-10-19T20:54:58.329Z,17.10
2018-10-19T20:57:26.841Z,16.43
2018-10-19T20:59:55.360Z,17.20
2018-10-19T21:02:24.109Z,16.47
2018-10-19T21:04:52.562Z,17.00
2018-10-19T21:07:21.140Z,16.10
2018-10-19T21:09:49.609Z,17.07
2018-10-19T21:12:18.266Z,16.73
2018-10-19T21:14:46.849Z,15.87
2018-10-19T21:17:16.033Z,16.93
2018-10-19T21:19:44.848Z,17.63
2018-10-19T21:22:13.401Z,16.50
2018-10-19T21:24:41.969Z,14.77
2018-10-19T21:27:10.744Z,16.50
2018-10-19T21:29:39.206Z,15.33
2018-10-19T21:32:08.102Z,15.77
2018-10-19T21:34:37.239Z,14.83
2018-10-19T21:37:05.861Z,15.83
2018-10-19T21:39:34.381Z,14.37
2018-10-19T21:42:02.892Z,14.43
2018-10-19T21:44:31.464Z,14.57
2018-10-19T21:47:00.336Z,14.33
2018-10-19T21:49:29.012Z,13.93
2018-10-19T21:51:58.103Z,13.50
2018-10-19T21:54:26.718Z,14.27
2018-10-19T21:56:55.271Z,13.13
2018-10-19T21:59:23.773Z,12.77
2018-10-19T22:01:52.309Z,12.13
2018-10-19T22:04:20.762Z,12.53
2018-10-19T22:06:49.339Z,12.53
2018-10-19T22:09:17.896Z,13.07
2018-10-19T22:11:47.124Z,13.23
2018-10-19T22:14:15.912Z,12.03
2018-10-19T22:16:44.678Z,12.20
2018-10-19T22:19:13.281Z,13.17
2018-10-19T22:21:41.949Z,12.47
2018-10-19T22:24:11.125Z,12.63
2018-10-19T22:26:40.296Z,13.57
2018-10-19T22:29:09.127Z,14.07
2018-10-19T22:31:37.692Z,12.17
2018-10-19T22:34:06.333Z,13.27
2018-10-19T22:36:36.107Z,14.27
2018-10-19T22:39:05.527Z,13.73
2018-10-19T22:41:34.062Z,12.90
2018-10-19T22:44:03.801Z,11.13
2018-10-19T22:46:32.418Z,12.80
2018-10-19T22:49:01.291Z,13.07
2018-10-19T22:51:29.926Z,11.80
2018-10-19T22:53:58.448Z,12.23
2018-10-19T22:56:26.903Z,13.57
2018-10-19T22:58:55.548Z,12.47
2018-10-19T23:01:24.708Z,12.33
2018-10-19T23:03:54.055Z,12.53
2018-10-19T23:06:22.644Z,13.57
2018-10-19T23:08:51.328Z,13.07
2018-10-19T23:11:19.835Z,13.37
2018-10-19T23:13:48.935Z,13.83
2018-10-19T23:16:17.604Z,13.07
2018-10-19T23:18:46.334Z,13.23
2018-10-19T23:21:14.931Z,12.50
2018-10-19T23:23:43.448Z,12.73
2018-10-19T23:26:11.937Z,12.67
2018-10-19T23:28:40.712Z,13.83
2018-10-19T23:31:09.491Z,14.27
2018-10-19T23:33:38.385Z,13.93
2018-10-19T23:36:06.993Z,13.73
2018-10-19T23:38:35.961Z,13.40
2018-10-19T23:41:04.477Z,13.13
2018-10-19T23:43:33.782Z,12.77
2018-10-19T23:46:02.268Z,13.77
2018-10-19T23:48:30.854Z,13.43
2018-10-19T23:50:59.371Z,12.50
2018-10-19T23:53:27.807Z,13.53
